createdAt,value
2019-02-22T00:00:48.544Z,46.35
2019-02-22T00:03:18.835Z,46.35
2019-02-22T00:05:49.165Z,46.65
2019-02-22T00:08:19.899Z,47.15
2019-02-22T00:10:50.473Z,46.76
2019-02-22T00:13:20.751Z,47.01
2019-02-22T00:15:51.395Z,47.16
2019-02-22T00:18:21.741Z,47.13
2019-02-22T00:20:52.059Z,47.32
2019-02-22T00:23:22.423Z,46.91
2019-02-22T00:25:52.990Z,47.06
2019-02-22T00:28:23.298Z,47.69
2019-02-22T00:30:53.677Z,47.94
2019-02-22T00:33:23.951Z,47.52
2019-02-22T00:35:54.641Z,47.45
2019-02-22T00:38:27.087Z,48.07
2019-02-22T00:40:57.488Z,48.13
2019-02-22T00:43:28.081Z,48.09
2019-02-22T00:45:58.769Z,48.13
2019-02-22T00:48:29.070Z,47.73
2019-02-22T00:50:59.619Z,47.49
2019-02-22T00:53:31.384Z,47.44
2019-02-22T00:56:01.707Z,47.87
2019-02-22T00:58:32.008Z,47.72
2019-02-22T01:01:03.946Z,47.75
2019-02-22T01:03:34.243Z,47.84
2019-02-22T01:06:04.953Z,48.42
2019-02-22T01:08:35.235Z,48.39
2019-02-22T01:11:05.619Z,48.90
2019-02-22T01:13:36.310Z,49.20
2019-02-22T01:16:06.676Z,49.11
2019-02-22T01:18:37.486Z,49.14
2019-02-22T01:21:08.044Z,49.64
2019-02-22T01:23:38.330Z,49.70
2019-02-22T01:26:08.627Z,50.06
2019-02-22T01:28:39.371Z,49.59
2019-02-22T01:31:09.878Z,49.31
2019-02-22T01:33:40.164Z,49.20
2019-02-22T01:36:11.057Z,49.39
2019-02-22T01:38:41.353Z,49.26
2019-02-22T01:41:12.041Z,48.93
2019-02-22T01:43:42.421Z,48.98
2019-02-22T01:46:12.736Z,48.76
2019-02-22T01:48:43.413Z,48.94
2019-02-22T01:51:13.855Z,49.03
2019-02-22T01:53:44.147Z,48.96
2019-02-22T01:56:14.638Z,49.07
2019-02-22T01:58:48.771Z,49.23
2019-02-22T02:01:17.412Z,48.90
2019-02-22T02:03:48.009Z,49.14
2019-02-22T02:06:18.696Z,48.52
2019-02-22T02:08:49.946Z,48.58
2019-02-22T02:11:20.502Z,48.23
2019-02-22T02:13:50.802Z,48.68
2019-02-22T02:16:21.637Z,48.62
2019-02-22T02:18:52.007Z,48.86
2019-02-22T02:21:22.325Z,48.95
2019-02-22T02:23:53.074Z,48.94
2019-02-22T02:26:24.763Z,48.93
2019-02-22T02:28:55.050Z,48.77
2019-02-22T02:31:25.451Z,48.52
2019-02-22T02:33:56.118Z,48.38
2019-02-22T02:36:26.430Z,48.49
2019-02-22T02:38:56.736Z,48.92
2019-02-22T02:41:27.189Z,49.35
2019-02-22T02:43:57.926Z,49.06
2019-02-22T02:46:28.576Z,49.36
2019-02-22T02:48:58.859Z,49.28
2019-02-22T02:51:29.223Z,49.08
2019-02-22T02:53:59.847Z,49.92
2019-02-22T02:56:30.257Z,50.05
2019-02-22T02:59:00.675Z,50.33
2019-02-22T03:01:31.545Z,49.62
2019-02-22T03:04:01.935Z,50.07
2019-02-22T03:06:41.320Z,50.22
2019-02-22T03:09:11.935Z,50.03
2019-02-22T03:11:42.505Z,49.76
2019-02-22T03:14:13.185Z,49.71
2019-02-22T03:16:43.757Z,49.78
2019-02-22T03:19:14.042Z,49.58
2019-02-22T03:21:44.627Z,49.22
2019-02-22T03:24:15.893Z,49.53
2019-02-22T03:26:46.210Z,49.62
2019-02-22T03:29:16.882Z,49.77
2019-02-22T03:31:47.394Z,48.91
2019-02-22T03:34:18.661Z,48.96
2019-02-22T03:36:49.321Z,49.57
2019-02-22T03:39:20.828Z,49.38
2019-02-22T03:41:51.152Z,49.21
2019-02-22T03:44:21.789Z,49.82
2019-02-22T03:46:52.124Z,49.88
2019-02-22T03:49:23.553Z,49.75
2019-02-22T03:51:53.898Z,49.72
2019-02-22T03:54:24.164Z,49.81
2019-02-22T03:56:54.813Z,49.88
2019-02-22T03:59:25.678Z,50.37
2019-02-22T04:01:56.004Z,49.99
2019-02-22T04:04:26.862Z,49.59
2019-02-22T04:06:57.702Z,49.49
2019-02-22T04:09:27.998Z,49.17
2019-02-22T04:11:58.408Z,49.36
2019-02-22T04:14:29.085Z,48.99
2019-02-22T04:16:59.597Z,48.91
2019-02-22T04:19:29.890Z,49.83
2019-02-22T04:22:00.599Z,49.52
2019-02-22T04:24:30.985Z,49.30
2019-02-22T04:27:01.569Z,49.66
2019-02-22T04:29:32.064Z,49.86
2019-02-22T04:32:02.553Z,50.13
2019-02-22T04:34:32.818Z,49.68
2019-02-22T04:37:03.496Z,48.90
2019-02-22T04:39:34.166Z,49.94
2019-02-22T04:42:04.544Z,49.95
2019-02-22T04:44:35.127Z,49.40
2019-02-22T04:47:05.643Z,49.68
2019-02-22T04:49:36.220Z,49.99
2019-02-22T04:52:06.704Z,49.29
2019-02-22T04:54:37.006Z,49.24
2019-02-22T04:57:07.866Z,49.79
2019-02-22T04:59:38.330Z,49.08
2019-02-22T05:02:08.828Z,49.77
2019-02-22T05:04:39.376Z,49.31
2019-02-22T05:07:10.196Z,49.48
2019-02-22T05:09:40.485Z,49.05
2019-02-22T05:12:11.432Z,48.65
2019-02-22T05:14:42.003Z,47.90
2019-02-22T05:17:12.380Z,47.20
2019-02-22T05:19:42.661Z,47.00
2019-02-22T05:22:14.501Z,48.09
2019-02-22T05:24:45.249Z,47.80
2019-02-22T05:27:16.025Z,48.61
2019-02-22T05:29:46.304Z,48.24
2019-02-22T05:32:16.935Z,49.47
2019-02-22T05:34:47.572Z,49.81
2019-02-22T05:37:17.913Z,50.24
2019-02-22T05:39:48.228Z,50.15
2019-02-22T05:42:22.981Z,50.81
2019-02-22T05:44:50.897Z,51.06
2019-02-22T05:47:21.513Z,50.49
2019-02-22T05:49:52.199Z,50.49
2019-02-22T05:52:22.725Z,50.97
2019-02-22T05:54:53.282Z,50.95
2019-02-22T05:57:23.578Z,51.30
2019-02-22T05:59:53.872Z,51.31
2019-02-22T06:02:24.463Z,50.88
2019-02-22T06:04:54.739Z,50.68
2019-02-22T06:07:25.071Z,50.83
2019-02-22T06:09:55.724Z,50.87
2019-02-22T06:12:34.104Z,50.47
2019-02-22T06:14:58.413Z,50.55
2019-02-22T06:17:29.238Z,50.16
2019-02-22T06:19:59.625Z,50.33
2019-02-22T06:22:30.969Z,51.29
2019-02-22T06:25:01.883Z,51.80
2019-02-22T06:27:32.470Z,51.88
2019-02-22T06:30:03.229Z,51.49
2019-02-22T06:32:33.764Z,51.62
2019-02-22T06:35:04.227Z,51.39
2019-02-22T06:37:34.648Z,51.12
2019-02-22T06:40:05.738Z,51.43
2019-02-22T06:42:45.262Z,51.73
2019-02-22T06:45:09.330Z,51.91
2019-02-22T06:47:39.836Z,52.26
2019-02-22T06:50:10.110Z,52.13
2019-02-22T06:52:40.679Z,51.50
2019-02-22T06:55:11.302Z,51.31
2019-02-22T06:57:41.719Z,51.56
2019-02-22T07:00:12.443Z,51.43
2019-02-22T07:02:42.833Z,50.76
2019-02-22T07:05:13.312Z,50.25
2019-02-22T07:07:43.979Z,49.91
2019-02-22T07:10:14.262Z,49.84
2019-02-22T07:12:56.573Z,49.48
2019-02-22T07:15:20.758Z,49.72
2019-02-22T07:17:52.070Z,49.56
2019-02-22T07:20:22.408Z,50.15
2019-02-22T07:22:53.010Z,50.24
2019-02-22T07:25:23.386Z,49.91
2019-02-22T07:27:53.742Z,50.70
2019-02-22T07:30:24.209Z,49.99
2019-02-22T07:32:55.097Z,49.91
2019-02-22T07:35:25.721Z,49.60
2019-02-22T07:37:56.139Z,49.35
2019-02-22T07:40:26.589Z,49.37
2019-02-22T07:43:07.541Z,50.07
2019-02-22T07:45:29.366Z,48.87
2019-02-22T07:47:59.807Z,49.37
2019-02-22T07:50:30.522Z,50.09
2019-02-22T07:53:00.834Z,50.28
2019-02-22T07:55:31.112Z,50.49
2019-02-22T07:58:01.845Z,50.30
2019-02-22T08:00:32.356Z,50.98
2019-02-22T08:03:03.143Z,51.39
2019-02-22T08:05:33.484Z,52.42
2019-02-22T08:08:04.007Z,52.83
2019-02-22T08:10:34.662Z,53.34
2019-02-22T08:13:04.997Z,53.40
2019-02-22T08:15:35.475Z,53.94
2019-02-22T08:18:06.090Z,53.19
2019-02-22T08:20:36.503Z,52.56
2019-02-22T08:23:06.885Z,51.23
2019-02-22T08:25:37.263Z,50.72
2019-02-22T08:28:08.065Z,51.65
2019-02-22T08:30:38.422Z,51.37
2019-02-22T08:33:09.087Z,51.61
2019-02-22T08:35:39.908Z,52.09
2019-02-22T08:38:10.327Z,52.12
2019-02-22T08:40:40.771Z,51.94
2019-02-22T08:43:11.482Z,52.77
2019-02-22T08:45:41.755Z,53.05
2019-02-22T08:48:12.588Z,52.51
2019-02-22T08:50:43.242Z,53.16
2019-02-22T08:53:13.782Z,52.63
2019-02-22T08:55:44.075Z,52.09
2019-02-22T08:58:15.019Z,52.03
2019-02-22T09:00:45.520Z,51.75
2019-02-22T09:03:16.073Z,51.18
2019-02-22T09:05:46.745Z,51.02
2019-02-22T09:08:17.278Z,51.55
2019-02-22T09:10:59.660Z,53.38
2019-02-22T09:13:19.904Z,56.30
2019-02-22T09:15:50.263Z,56.14
2019-02-22T09:18:20.868Z,57.07
2019-02-22T09:20:51.288Z,57.21
2019-02-22T09:23:21.730Z,58.09
2019-02-22T09:25:52.295Z,56.64
2019-02-22T09:28:23.122Z,56.77
2019-02-22T09:30:53.425Z,57.35
2019-02-22T09:33:24.149Z,58.25
2019-02-22T09:35:54.819Z,59.11
2019-02-22T09:38:25.165Z,60.01
2019-02-22T09:40:55.640Z,59.80
2019-02-22T09:43:25.986Z,61.48
2019-02-22T09:45:56.638Z,61.77
2019-02-22T09:48:27.381Z,62.47
2019-02-22T09:50:57.737Z,62.94
2019-02-22T09:53:29.795Z,63.50
2019-02-22T09:56:00.180Z,63.63
2019-02-22T09:58:30.571Z,65.07
2019-02-22T10:01:01.050Z,65.69
2019-02-22T10:03:31.738Z,66.73
2019-02-22T10:06:02.057Z,65.38
2019-02-22T10:08:32.398Z,65.50
2019-02-22T10:11:02.932Z,65.22
2019-02-22T10:13:33.654Z,66.29
2019-02-22T10:16:04.482Z,66.18
2019-02-22T10:18:35.253Z,65.36
2019-02-22T10:21:05.714Z,66.84
2019-02-22T10:23:36.372Z,66.61
2019-02-22T10:26:06.645Z,68.63
2019-02-22T10:28:36.971Z,68.82
2019-02-22T10:31:07.606Z,69.95
2019-02-22T10:33:37.995Z,71.44
2019-02-22T10:36:08.254Z,71.04
2019-02-22T10:38:38.953Z,70.19
2019-02-22T10:41:09.478Z,70.72
2019-02-22T10:43:40.211Z,71.36
2019-02-22T10:46:10.579Z,70.17
2019-02-22T10:48:41.034Z,71.22
2019-02-22T10:51:11.581Z,71.14
2019-02-22T10:53:41.890Z,71.90
2019-02-22T10:56:12.188Z,72.43
2019-02-22T10:58:42.789Z,72.33
2019-02-22T11:01:13.220Z,70.75
2019-02-22T11:03:43.593Z,74.08
2019-02-22T11:06:14.236Z,71.94
2019-02-22T11:08:44.893Z,72.25
2019-02-22T11:11:15.169Z,73.62
2019-02-22T11:13:46.161Z,72.38
2019-02-22T11:16:16.514Z,72.89
2019-02-22T11:18:47.154Z,73.84
2019-02-22T11:21:17.566Z,73.65
2019-02-22T11:23:48.005Z,74.15
2019-02-22T11:26:18.812Z,74.00
2019-02-22T11:32:13.240Z,74.84
2019-02-22T11:34:45.059Z,74.19
2019-02-22T11:37:15.663Z,76.50
2019-02-22T11:39:45.975Z,76.21
2019-02-22T11:42:16.435Z,76.25
2019-02-22T11:44:47.096Z,75.94
2019-02-22T11:47:17.375Z,76.81
2019-02-22T11:49:48.227Z,78.01
2019-02-22T11:52:18.587Z,75.97
2019-02-22T11:54:49.332Z,77.46
2019-02-22T11:57:19.765Z,78.47
2019-02-22T12:02:55.768Z,76.54
2019-02-22T12:05:26.535Z,75.69
2019-02-22T12:07:56.876Z,73.19
2019-02-22T12:10:27.503Z,74.00
2019-02-22T12:12:58.006Z,74.10
2019-02-22T12:15:28.320Z,74.18
2019-02-22T12:17:58.723Z,74.19
2019-02-22T12:20:29.592Z,73.51
2019-02-22T12:23:00.119Z,73.49
2019-02-22T12:25:30.789Z,73.35
2019-02-22T12:28:01.064Z,73.23
2019-02-22T12:30:31.564Z,74.11
2019-02-22T12:33:02.093Z,72.17
2019-02-22T12:35:32.731Z,73.82
2019-02-22T12:38:03.011Z,72.56
2019-02-22T12:40:33.515Z,72.74
2019-02-22T12:43:04.111Z,72.15
2019-02-22T12:45:34.445Z,72.57
2019-02-22T12:48:05.017Z,72.10
2019-02-22T12:50:35.805Z,72.95
2019-02-22T12:53:06.104Z,72.93
2019-02-22T12:55:36.739Z,72.46
2019-02-22T12:58:07.189Z,73.52
2019-02-22T13:00:37.437Z,72.95
2019-02-22T13:03:07.960Z,73.82
2019-02-22T13:05:38.605Z,72.69
2019-02-22T13:08:09.110Z,72.19
2019-02-22T13:10:39.382Z,70.73
2019-02-22T13:13:09.938Z,71.20
2019-02-22T13:15:40.191Z,72.00
2019-02-22T13:18:10.500Z,72.66
2019-02-22T13:20:41.379Z,73.74
2019-02-22T13:23:11.807Z,73.99
2019-02-22T13:25:42.445Z,74.84
2019-02-22T13:28:12.772Z,74.58
2019-02-22T13:30:43.083Z,75.56
2019-02-22T13:33:13.570Z,75.05
2019-02-22T13:35:43.844Z,76.36
2019-02-22T13:38:14.158Z,76.84
2019-02-22T13:40:44.815Z,77.85
2019-02-22T13:43:15.186Z,78.03
2019-02-22T13:45:45.540Z,78.30
2019-02-22T13:48:17.308Z,78.03
2019-02-22T13:50:48.079Z,78.21
2019-02-22T13:53:18.305Z,76.99
2019-02-22T13:55:49.116Z,76.82
2019-02-22T13:58:19.435Z,76.50
2019-02-22T14:00:50.102Z,76.67
2019-02-22T14:03:20.556Z,77.33
2019-02-22T14:05:50.904Z,74.08
2019-02-22T14:08:21.551Z,74.11
2019-02-22T14:10:51.948Z,74.99
2019-02-22T14:13:22.205Z,73.40
2019-02-22T14:15:52.585Z,73.47
2019-02-22T14:18:23.192Z,72.50
2019-02-22T14:20:53.466Z,72.12
2019-02-22T14:23:23.810Z,72.97
2019-02-22T14:25:54.531Z,71.39
2019-02-22T14:28:24.810Z,72.40
2019-02-22T14:30:55.526Z,72.08
2019-02-22T14:33:25.789Z,70.42
2019-02-22T14:35:56.492Z,71.54
2019-02-22T14:38:28.257Z,70.85
2019-02-22T14:40:58.540Z,70.51
2019-02-22T14:43:28.869Z,70.05
2019-02-22T14:45:59.706Z,70.63
2019-02-22T14:48:29.973Z,70.06
2019-02-22T14:51:00.646Z,69.65
2019-02-22T14:53:31.297Z,69.86
2019-02-22T14:56:01.911Z,70.73
2019-02-22T14:58:32.187Z,69.14
2019-02-22T15:01:02.918Z,69.76
2019-02-22T15:03:33.325Z,69.71
2019-02-22T15:06:04.205Z,69.63
2019-02-22T15:08:34.473Z,68.95
2019-02-22T15:11:04.782Z,68.72
2019-02-22T15:13:35.328Z,68.82
2019-02-22T15:16:20.954Z,68.51
2019-02-22T15:18:51.278Z,69.01
2019-02-22T15:21:22.134Z,69.42
2019-02-22T15:23:52.454Z,73.39
2019-02-22T15:26:22.890Z,76.43
2019-02-22T15:28:53.669Z,76.66
2019-02-22T15:31:25.684Z,77.97
2019-02-22T15:33:57.378Z,78.54
2019-02-22T15:36:27.762Z,78.39
2019-02-22T15:38:58.131Z,78.84
2019-02-22T15:41:29.027Z,79.20
2019-02-22T15:43:59.466Z,79.08
2019-02-22T15:46:29.843Z,79.31
2019-02-22T15:49:00.504Z,79.53
2019-02-22T15:51:31.230Z,79.78
2019-02-22T15:54:01.586Z,80.14
2019-02-22T15:56:32.175Z,80.14
2019-02-22T15:59:02.527Z,80.00
2019-02-22T16:01:32.839Z,79.34
2019-02-22T16:04:14.018Z,79.14
2019-02-22T16:06:44.575Z,79.22
2019-02-22T16:09:15.461Z,77.06
2019-02-22T16:11:46.357Z,74.69
2019-02-22T16:14:16.628Z,74.56
2019-02-22T16:16:47.302Z,73.77
2019-02-22T16:19:17.882Z,72.23
2019-02-22T16:21:48.563Z,72.87
2019-02-22T16:24:18.980Z,73.23
2019-02-22T16:26:51.714Z,72.98
2019-02-22T16:29:21.975Z,72.73
2019-02-22T16:31:52.466Z,72.83
2019-02-22T16:34:23.108Z,72.86
2019-02-22T16:36:53.407Z,72.35
2019-02-22T16:39:24.074Z,72.39
2019-02-22T16:41:54.342Z,72.50
2019-02-22T16:44:24.830Z,72.67
2019-02-22T16:46:57.680Z,73.74
2019-02-22T16:49:28.676Z,73.45
2019-02-22T16:51:59.089Z,73.78
2019-02-22T16:54:29.712Z,74.41
2019-02-22T16:57:00.185Z,74.47
2019-02-22T16:59:33.452Z,73.84
2019-02-22T17:02:04.102Z,74.06
2019-02-22T17:04:34.572Z,74.54
2019-02-22T17:07:05.294Z,74.56
2019-02-22T17:09:35.958Z,74.12
2019-02-22T17:12:07.017Z,74.14
2019-02-22T17:14:37.242Z,74.14
2019-02-22T17:17:07.900Z,73.84
2019-02-22T17:19:38.489Z,73.78
2019-02-22T17:22:09.793Z,74.35
2019-02-22T17:24:40.383Z,73.55
2019-02-22T17:27:10.952Z,73.18
2019-02-22T17:29:41.215Z,73.67
2019-02-22T17:32:11.539Z,73.37
2019-02-22T17:34:42.219Z,74.10
2019-02-22T17:37:12.525Z,74.21
2019-02-22T17:39:42.793Z,74.80
2019-02-22T17:42:13.501Z,75.08
2019-02-22T17:44:43.986Z,76.12
2019-02-22T17:47:14.841Z,76.02
2019-02-22T17:49:45.126Z,76.27
2019-02-22T17:52:15.412Z,75.47
2019-02-22T17:54:46.074Z,76.02
2019-02-22T17:57:16.351Z,76.14
2019-02-22T17:59:46.669Z,76.12
2019-02-22T18:02:17.393Z,76.24
2019-02-22T18:04:47.859Z,76.61
2019-02-22T18:07:18.119Z,77.37
2019-02-22T18:09:48.803Z,78.25
2019-02-22T18:12:19.153Z,77.73
2019-02-22T18:14:49.609Z,77.01
2019-02-22T18:17:19.920Z,77.59
2019-02-22T18:19:50.223Z,78.20
2019-02-22T18:22:25.715Z,77.81
2019-02-22T18:24:53.079Z,77.75
2019-02-22T18:27:23.399Z,77.77
2019-02-22T18:29:54.207Z,77.58
2019-02-22T18:32:24.915Z,77.79
2019-02-22T18:34:56.194Z,78.72
2019-02-22T18:37:26.867Z,78.69
2019-02-22T18:39:57.316Z,77.69
2019-02-22T18:42:27.586Z,78.11
2019-02-22T18:44:58.007Z,78.37
2019-02-22T18:47:28.365Z,78.76
2019-02-22T18:49:59.104Z,78.37
2019-02-22T18:52:29.723Z,77.94
2019-02-22T18:55:00.047Z,78.34
2019-02-22T18:57:30.693Z,78.61
2019-02-22T19:00:01.370Z,78.53
2019-02-22T19:02:33.353Z,78.12
2019-02-22T19:05:03.700Z,78.43
2019-02-22T19:07:34.168Z,78.33
2019-02-22T19:10:04.665Z,78.61
2019-02-22T19:12:35.158Z,79.06
2019-02-22T19:15:06.381Z,78.71
2019-02-22T19:17:36.762Z,79.50
2019-02-22T19:20:08.960Z,79.00
2019-02-22T19:22:39.389Z,79.20
2019-02-22T19:25:09.965Z,80.18
2019-02-22T19:27:40.775Z,80.44
2019-02-22T19:30:13.609Z,80.59
2019-02-22T19:32:43.932Z,81.29
2019-02-22T19:35:14.417Z,81.66
2019-02-22T19:37:44.916Z,82.80
2019-02-22T19:40:17.458Z,82.53
2019-02-22T19:42:48.222Z,82.72
2019-02-22T19:45:18.698Z,83.12
2019-02-22T19:47:49.013Z,84.28
2019-02-22T19:50:19.705Z,84.56
2019-02-22T19:52:50.035Z,84.66
2019-02-22T19:55:20.868Z,84.42
2019-02-22T19:57:51.177Z,84.71
2019-02-22T20:00:21.449Z,84.68
2019-02-22T20:02:52.388Z,85.26
2019-02-22T20:05:22.837Z,84.66
2019-02-22T20:07:53.150Z,85.12
2019-02-22T20:10:25.035Z,85.13
2019-02-22T20:12:55.601Z,85.27
2019-02-22T20:15:25.911Z,85.79
2019-02-22T20:17:56.660Z,86.05
2019-02-22T20:20:27.543Z,86.72
2019-02-22T20:22:57.893Z,87.07
2019-02-22T20:25:28.338Z,87.30
2019-02-22T20:27:58.720Z,87.04
2019-02-22T20:30:29.518Z,87.45
2019-02-22T20:33:00.288Z,87.02
2019-02-22T20:35:30.647Z,87.45
2019-02-22T20:38:01.272Z,87.67
2019-02-22T20:40:31.957Z,87.45
2019-02-22T20:43:02.286Z,87.73
2019-02-22T20:45:33.065Z,87.66
2019-02-22T20:48:05.458Z,87.92
2019-02-22T20:50:35.631Z,87.32
2019-02-22T20:53:05.997Z,87.44
2019-02-22T20:55:36.343Z,87.54
2019-02-22T20:58:06.770Z,86.65
2019-02-22T21:00:37.164Z,86.79
2019-02-22T21:03:07.447Z,86.59
2019-02-22T21:05:37.962Z,86.98
2019-02-22T21:08:08.591Z,86.45
2019-02-22T21:10:39.913Z,85.89
2019-02-22T21:13:10.318Z,85.69
2019-02-22T21:15:40.830Z,86.35
2019-02-22T21:18:16.213Z,86.52
2019-02-22T21:20:43.168Z,86.23
2019-02-22T21:23:13.755Z,86.42
2019-02-22T21:25:44.229Z,86.03
2019-02-22T21:28:14.544Z,86.08
2019-02-22T21:30:45.212Z,86.10
2019-02-22T21:33:15.975Z,85.81
2019-02-22T21:35:46.246Z,85.63
2019-02-22T21:38:16.940Z,85.75
2019-02-22T21:40:47.631Z,84.76
2019-02-22T21:43:18.008Z,85.31
2019-02-22T21:45:48.498Z,84.90
2019-02-22T21:48:27.184Z,86.28
2019-02-22T21:50:51.137Z,86.04
2019-02-22T21:53:21.450Z,86.67
2019-02-22T21:55:52.136Z,86.14
2019-02-22T21:58:22.480Z,85.46
2019-02-22T22:00:52.837Z,85.85
2019-02-22T22:03:24.199Z,86.28
2019-02-22T22:05:54.778Z,86.07
2019-02-22T22:08:25.447Z,86.30
2019-02-22T22:10:55.725Z,86.35
2019-02-22T22:13:26.250Z,86.53
2019-02-22T22:15:56.782Z,86.43
2019-02-22T22:18:38.253Z,86.31
2019-02-22T22:21:00.043Z,86.56
2019-02-22T22:23:30.575Z,86.26
2019-02-22T22:26:01.042Z,86.84
2019-02-22T22:28:31.337Z,87.03
2019-02-22T22:31:02.112Z,86.81
2019-02-22T22:33:32.419Z,87.03
2019-02-22T22:36:02.979Z,87.10
2019-02-22T22:38:33.291Z,87.28
2019-02-22T22:41:03.557Z,87.02
2019-02-22T22:43:34.211Z,87.31
2019-02-22T22:46:04.726Z,85.22
2019-02-22T22:48:35.036Z,85.20
2019-02-22T22:51:05.860Z,84.43
2019-02-22T22:53:36.511Z,84.87
2019-02-22T22:56:06.763Z,85.20
2019-02-22T22:58:37.169Z,83.96
2019-02-22T23:01:13.141Z,87.40
2019-02-22T23:03:43.628Z,87.08
2019-02-22T23:06:15.315Z,88.77
2019-02-22T23:08:45.701Z,88.24
2019-02-22T23:11:16.428Z,89.46
2019-02-22T23:13:47.310Z,90.96
2019-02-22T23:16:17.683Z,91.71
2019-02-22T23:18:48.563Z,91.98
2019-02-22T23:21:19.783Z,91.91
2019-02-22T23:23:50.090Z,92.17
2019-02-22T23:26:20.505Z,91.53
2019-02-22T23:28:51.217Z,90.93
2019-02-22T23:31:21.482Z,91.06
2019-02-22T23:33:51.791Z,92.01
2019-02-22T23:36:22.325Z,92.64
2019-02-22T23:38:53.896Z,93.52
2019-02-22T23:41:24.570Z,91.89
2019-02-22T23:43:54.829Z,90.72
2019-02-22T23:46:25.340Z,90.53
2019-02-22T23:48:56.058Z,89.03
2019-02-22T23:51:26.314Z,89.21
2019-02-22T23:53:56.629Z,89.44
2019-02-22T23:56:27.338Z,89.08
2019-02-22T23:58:57.635Z,88.71
